createdAt,value
2023-01-21T00:01:55.403Z,82.15
2023-01-21T00:04:29.011Z,94.80
2023-01-21T00:07:01.431Z,79.68
2023-01-21T00:09:34.168Z,89.95
2023-01-21T00:12:06.299Z,79.97
2023-01-21T00:14:38.322Z,81.40
2023-01-21T00:17:10.328Z,94.40
2023-01-21T00:19:42.497Z,91.55
2023-01-21T00:22:18.897Z,96.55
2023-01-21T00:24:50.935Z,88.32
2023-01-21T00:27:23.340Z,88.82
2023-01-21T00:29:55.301Z,81.72
2023-01-21T00:32:27.431Z,87.82
2023-01-21T00:34:59.492Z,82.45
2023-01-21T00:37:31.534Z,89.28
2023-01-21T00:40:05.773Z,102.32
2023-01-21T00:42:37.810Z,92.63
2023-01-21T00:45:10.375Z,79.47
2023-01-21T00:47:42.624Z,92.75
2023-01-21T00:50:14.916Z,92.63
2023-01-21T00:52:47.016Z,92.35
2023-01-21T00:55:19.027Z,86.43
2023-01-21T00:57:53.215Z,77.72
2023-01-21T01:00:25.369Z,79.78
2023-01-21T01:03:59.778Z,78.72
2023-01-21T01:06:32.454Z,88.32
2023-01-21T01:09:30.145Z,83.15
2023-01-21T01:12:06.553Z,80.35
2023-01-21T01:17:24.314Z,80.35
2023-01-21T01:19:56.321Z,78.20
2023-01-21T01:22:28.617Z,77.78
2023-01-21T01:25:00.571Z,71.85
2023-01-21T01:27:32.803Z,67.20
2023-01-21T01:30:05.775Z,73.28
2023-01-21T01:32:37.813Z,74.32
2023-01-21T01:35:13.014Z,76.93
2023-01-21T01:37:44.955Z,60.88
2023-01-21T01:40:17.399Z,70.15
2023-01-21T01:42:49.645Z,61.65
2023-01-21T01:45:35.265Z,65.70
2023-01-21T01:48:08.349Z,67.50
2023-01-21T01:50:40.556Z,58.03
2023-01-21T01:53:15.887Z,62.42
2023-01-21T01:55:49.737Z,74.10
2023-01-21T01:58:23.191Z,63.03
2023-01-21T02:00:55.169Z,60.88
2023-01-21T02:03:46.140Z,67.03
2023-01-21T02:06:19.390Z,66.68
2023-01-21T02:08:52.324Z,65.57
2023-01-21T02:11:24.412Z,68.22
2023-01-21T02:13:59.539Z,66.55
2023-01-21T02:16:50.375Z,71.15
2023-01-21T02:20:22.525Z,67.55
2023-01-21T02:23:15.339Z,65.55
2023-01-21T02:26:28.246Z,61.58
2023-01-21T02:29:26.882Z,61.45
2023-01-21T02:32:40.701Z,67.15
2023-01-21T02:35:27.463Z,76.50
2023-01-21T02:38:26.313Z,69.57
2023-01-21T02:41:44.221Z,65.32
2023-01-21T02:45:00.880Z,65.50
2023-01-21T02:48:06.499Z,59.88
2023-01-21T02:50:46.256Z,63.28
2023-01-21T02:53:28.134Z,64.05
2023-01-21T02:56:08.298Z,64.70
2023-01-21T02:58:48.132Z,62.53
2023-01-21T03:01:32.271Z,63.50
2023-01-21T03:04:41.095Z,64.38
2023-01-21T03:07:35.678Z,60.42
2023-01-21T03:10:28.414Z,66.78
2023-01-21T03:13:41.828Z,66.20
2023-01-21T03:16:35.104Z,65.13
2023-01-21T03:19:12.810Z,75.45
2023-01-21T03:21:46.494Z,68.45
2023-01-21T03:24:19.882Z,72.65
2023-01-21T03:26:53.900Z,66.47
2023-01-21T03:29:28.997Z,74.72
2023-01-21T03:32:06.362Z,63.25
2023-01-21T03:34:43.221Z,71.45
2023-01-21T03:37:27.715Z,78.03
2023-01-21T03:44:01.026Z,63.35
2023-01-21T03:46:49.227Z,66.47
2023-01-21T03:49:31.111Z,66.80
2023-01-21T03:52:05.407Z,69.55
2023-01-21T03:54:37.792Z,64.57
2023-01-21T03:58:29.630Z,69.85
2023-01-21T04:01:01.834Z,63.80
2023-01-21T04:03:33.817Z,70.97
2023-01-21T04:06:05.975Z,65.80
2023-01-21T04:08:38.011Z,67.35
2023-01-21T04:11:12.122Z,78.70
2023-01-21T04:13:44.279Z,71.18
2023-01-21T04:16:16.243Z,65.20
2023-01-21T04:18:48.354Z,75.63
2023-01-21T04:21:20.491Z,74.63
2023-01-21T04:23:54.385Z,69.20
2023-01-21T04:26:26.348Z,73.03
2023-01-21T04:28:59.837Z,73.70
2023-01-21T04:31:31.875Z,76.68
2023-01-21T04:34:04.039Z,76.07
2023-01-21T04:36:36.026Z,71.13
2023-01-21T04:39:08.075Z,73.95
2023-01-21T04:41:40.016Z,76.68
2023-01-21T04:44:12.064Z,66.57
2023-01-21T04:46:45.918Z,66.43
2023-01-21T04:49:19.476Z,69.80
2023-01-21T04:51:51.532Z,81.65
2023-01-21T04:54:23.557Z,75.60
2023-01-21T04:56:55.530Z,72.13
2023-01-21T04:59:27.651Z,80.03
2023-01-21T05:01:59.693Z,74.55
2023-01-21T05:04:33.000Z,85.70
2023-01-21T05:07:05.526Z,77.13
2023-01-21T05:13:30.477Z,85.93
2023-01-21T05:16:30.441Z,78.45
2023-01-21T05:19:02.416Z,84.53
2023-01-21T05:21:34.526Z,81.55
2023-01-21T05:24:06.868Z,83.97
2023-01-21T05:26:38.837Z,77.15
2023-01-21T05:29:11.228Z,83.45
2023-01-21T05:31:46.387Z,90.90
2023-01-21T05:34:18.375Z,86.35
2023-01-21T05:36:50.373Z,99.78
2023-01-21T05:39:22.399Z,101.60
2023-01-21T05:41:54.355Z,88.55
2023-01-21T05:44:26.367Z,86.00
2023-01-21T05:46:58.400Z,87.47
2023-01-21T05:50:01.229Z,81.45
2023-01-21T05:52:33.285Z,87.72
2023-01-21T05:55:06.185Z,87.90
2023-01-21T05:57:38.176Z,87.32
2023-01-21T06:00:11.110Z,86.40
2023-01-21T06:02:43.115Z,88.32
2023-01-21T06:05:15.276Z,82.30
2023-01-21T06:07:47.311Z,88.60
2023-01-21T06:10:20.649Z,82.50
2023-01-21T06:12:53.002Z,85.53
2023-01-21T06:15:25.934Z,78.40
2023-01-21T06:17:59.027Z,79.57
2023-01-21T06:20:31.552Z,71.97
2023-01-21T06:23:03.922Z,74.45
2023-01-21T06:25:35.892Z,80.22
2023-01-21T06:28:10.784Z,77.88
2023-01-21T06:30:42.773Z,77.85
2023-01-21T06:33:14.942Z,76.47
2023-01-21T06:35:47.586Z,77.22
2023-01-21T06:38:19.619Z,69.30
2023-01-21T06:40:51.713Z,75.95
2023-01-21T06:43:23.725Z,82.93
2023-01-21T06:45:55.984Z,74.93
2023-01-21T06:48:30.581Z,84.50
2023-01-21T06:51:02.990Z,84.60
2023-01-21T06:53:36.971Z,71.88
2023-01-21T06:56:08.992Z,84.43
2023-01-21T06:58:42.436Z,77.38
2023-01-21T07:01:14.477Z,74.22
2023-01-21T07:03:46.606Z,80.53
2023-01-21T07:06:18.618Z,77.28
2023-01-21T07:08:50.665Z,83.35
2023-01-21T07:11:22.772Z,75.78
2023-01-21T07:13:54.818Z,82.90
2023-01-21T07:16:27.250Z,73.50
2023-01-21T07:18:59.283Z,73.75
2023-01-21T07:21:31.494Z,72.68
2023-01-21T07:24:06.408Z,76.35
2023-01-21T07:26:38.380Z,67.18
2023-01-21T07:29:10.630Z,67.65
2023-01-21T07:31:42.681Z,66.70
2023-01-21T07:34:14.812Z,73.18
2023-01-21T07:36:46.770Z,67.25
2023-01-21T07:39:18.727Z,62.85
2023-01-21T07:41:50.786Z,70.57
2023-01-21T07:44:22.772Z,78.20
2023-01-21T07:46:55.015Z,64.80
2023-01-21T07:49:27.019Z,72.35
2023-01-21T07:51:59.144Z,66.57
2023-01-21T07:54:31.154Z,64.70
2023-01-21T07:57:03.232Z,60.70
2023-01-21T07:59:35.295Z,62.35
2023-01-21T08:02:07.325Z,65.75
2023-01-21T08:04:39.381Z,62.88
2023-01-21T08:07:13.271Z,62.95
2023-01-21T08:09:45.429Z,60.08
2023-01-21T08:12:17.507Z,59.67
2023-01-21T08:14:49.507Z,60.95
2023-01-21T08:17:21.581Z,60.10
2023-01-21T08:19:53.554Z,60.85
2023-01-21T08:22:26.111Z,73.82
2023-01-21T08:24:58.183Z,60.05
2023-01-21T08:27:30.412Z,64.55
2023-01-21T08:30:11.645Z,69.90
2023-01-21T08:32:44.205Z,65.32
2023-01-21T08:35:16.502Z,64.10
2023-01-21T08:37:48.718Z,66.20
2023-01-21T08:40:20.800Z,66.22
2023-01-21T08:42:59.480Z,71.70
2023-01-21T08:45:31.535Z,63.85
2023-01-21T08:48:04.268Z,64.22
2023-01-21T08:53:59.002Z,75.60
2023-01-21T08:56:31.262Z,71.38
2023-01-21T08:59:03.354Z,71.35
2023-01-21T09:01:37.962Z,71.70
2023-01-21T09:04:10.309Z,75.05
2023-01-21T09:06:42.289Z,65.50
2023-01-21T09:09:14.226Z,67.25
2023-01-21T09:11:46.343Z,69.78
2023-01-21T09:14:19.874Z,66.15
2023-01-21T09:16:52.044Z,71.57
2023-01-21T09:23:28.769Z,71.97
2023-01-21T09:26:07.339Z,72.82
2023-01-21T09:28:42.388Z,69.75
2023-01-21T09:31:31.166Z,82.07
2023-01-21T09:34:05.938Z,71.50
2023-01-21T09:36:59.812Z,64.68
2023-01-21T09:39:31.816Z,70.82
2023-01-21T09:42:03.963Z,71.78
2023-01-21T09:44:44.889Z,74.47
2023-01-21T09:47:36.754Z,62.95
2023-01-21T09:50:22.125Z,77.43
2023-01-21T09:53:01.738Z,64.55
2023-01-21T09:55:47.931Z,74.55
2023-01-21T09:58:37.931Z,68.80
2023-01-21T10:01:24.499Z,70.45
2023-01-21T10:04:03.147Z,75.03
2023-01-21T10:06:38.677Z,71.03
2023-01-21T10:09:43.897Z,72.35
2023-01-21T10:12:44.551Z,73.78
2023-01-21T10:15:41.888Z,61.45
2023-01-21T10:18:23.426Z,60.50
2023-01-21T10:21:03.820Z,71.05
2023-01-21T10:23:43.211Z,65.57
2023-01-21T10:26:15.834Z,65.70
2023-01-21T10:28:55.857Z,69.45
2023-01-21T10:31:40.088Z,75.05
2023-01-21T10:34:17.387Z,69.72
2023-01-21T10:37:12.589Z,64.35
2023-01-21T10:40:43.981Z,69.95
2023-01-21T10:43:37.765Z,62.75
2023-01-21T10:46:48.839Z,62.90
2023-01-21T10:49:29.759Z,65.85
2023-01-21T10:52:13.843Z,67.60
2023-01-21T10:54:56.737Z,69.53
2023-01-21T10:58:05.430Z,66.68
2023-01-21T11:00:44.053Z,68.18
2023-01-21T11:03:44.608Z,71.72
2023-01-21T11:06:19.556Z,73.18
2023-01-21T11:08:58.641Z,62.80
2023-01-21T11:11:35.539Z,67.35
2023-01-21T11:14:08.022Z,63.88
2023-01-21T11:16:45.586Z,69.50
2023-01-21T11:19:32.096Z,71.63
2023-01-21T11:22:17.643Z,72.85
2023-01-21T11:24:52.806Z,68.03
2023-01-21T11:27:40.284Z,61.25
2023-01-21T11:30:48.721Z,75.30
2023-01-21T11:33:27.884Z,72.68
2023-01-21T11:36:16.910Z,72.03
2023-01-21T11:39:03.928Z,68.75
2023-01-21T11:41:36.586Z,71.93
2023-01-21T11:44:20.697Z,67.22
2023-01-21T11:46:52.939Z,70.88
2023-01-21T11:49:28.931Z,76.65
2023-01-21T11:52:19.298Z,72.28
2023-01-21T11:54:52.678Z,66.28
2023-01-21T11:57:29.057Z,69.32
2023-01-21T12:00:19.361Z,62.00
2023-01-21T12:03:01.828Z,64.88
2023-01-21T12:05:43.162Z,58.25
2023-01-21T12:08:30.127Z,84.00
2023-01-21T12:11:05.054Z,71.90
2023-01-21T12:14:07.827Z,70.20
2023-01-21T12:17:22.025Z,65.90
2023-01-21T12:20:23.424Z,60.90
2023-01-21T12:23:15.493Z,63.08
2023-01-21T12:26:12.428Z,65.10
2023-01-21T12:29:21.753Z,60.17
2023-01-21T12:32:01.823Z,61.33
2023-01-21T12:35:02.750Z,69.78
2023-01-21T12:37:48.575Z,58.53
2023-01-21T12:40:33.247Z,60.83
2023-01-21T12:43:22.840Z,57.15
2023-01-21T12:46:15.266Z,62.00
2023-01-21T12:49:33.316Z,65.88
2023-01-21T12:52:59.801Z,64.60
2023-01-21T12:56:22.593Z,58.55
2023-01-21T12:59:14.365Z,68.65
2023-01-21T13:03:29.375Z,60.33
2023-01-21T13:06:10.877Z,59.78
2023-01-21T13:09:11.633Z,62.40
2023-01-21T13:11:52.613Z,66.63
2023-01-21T13:14:36.035Z,68.55
2023-01-21T13:17:31.086Z,55.85
2023-01-21T13:20:18.717Z,64.50
2023-01-21T13:23:35.243Z,61.45
2023-01-21T13:26:30.760Z,60.42
2023-01-21T13:29:47.526Z,56.38
2023-01-21T13:32:58.624Z,56.88
2023-01-21T13:36:14.561Z,62.38
2023-01-21T13:39:14.985Z,65.05
2023-01-21T13:42:17.686Z,59.58
2023-01-21T13:45:30.842Z,60.58
2023-01-21T13:48:33.635Z,65.97
2023-01-21T13:51:39.256Z,48.63
2023-01-21T13:54:45.749Z,51.08
2023-01-21T13:58:03.942Z,54.22
2023-01-21T14:01:32.231Z,51.45
2023-01-21T14:04:52.827Z,50.47
2023-01-21T14:07:45.078Z,50.42
2023-01-21T14:10:37.035Z,53.22
2023-01-21T14:13:29.350Z,49.67
2023-01-21T14:16:15.925Z,47.20
2023-01-21T14:19:12.395Z,48.50
2023-01-21T14:22:13.416Z,47.67
2023-01-21T14:25:16.704Z,49.25
2023-01-21T14:28:09.593Z,47.85
2023-01-21T14:30:48.466Z,57.35
2023-01-21T14:33:51.453Z,57.95
2023-01-21T14:36:43.391Z,43.55
2023-01-21T14:39:53.571Z,45.03
2023-01-21T14:42:47.158Z,48.20
2023-01-21T14:45:23.558Z,51.13
2023-01-21T14:47:57.905Z,58.60
2023-01-21T14:50:56.367Z,48.28
2023-01-21T14:53:28.447Z,55.38
2023-01-21T14:56:19.689Z,47.00
2023-01-21T14:59:23.846Z,48.28
2023-01-21T15:02:02.341Z,45.15
2023-01-21T15:04:42.069Z,42.75
2023-01-21T15:07:20.283Z,44.83
2023-01-21T15:10:02.477Z,42.13
2023-01-21T15:12:38.340Z,42.38
2023-01-21T15:16:13.924Z,35.90
2023-01-21T15:19:19.080Z,37.90
2023-01-21T15:22:00.279Z,38.08
2023-01-21T15:24:40.719Z,40.55
2023-01-21T15:27:27.016Z,38.58
2023-01-21T15:30:00.703Z,40.40
2023-01-21T15:32:41.064Z,48.28
2023-01-21T15:35:27.983Z,53.13
2023-01-21T15:38:09.723Z,48.92
2023-01-21T15:41:03.056Z,41.70
2023-01-21T15:43:54.984Z,49.20
2023-01-21T15:47:04.335Z,41.05
2023-01-21T15:49:56.045Z,50.72
2023-01-21T15:52:44.085Z,49.30
2023-01-21T15:55:25.996Z,48.20
2023-01-21T15:58:13.453Z,49.17
2023-01-21T16:01:41.508Z,52.75
2023-01-21T16:04:35.848Z,55.72
2023-01-21T16:07:32.232Z,49.45
2023-01-21T16:10:44.651Z,48.08
2023-01-21T16:13:47.605Z,46.58
2023-01-21T16:17:07.398Z,47.22
2023-01-21T16:19:45.508Z,57.40
2023-01-21T16:22:38.649Z,52.75
2023-01-21T16:25:15.629Z,47.38
2023-01-21T16:27:52.568Z,58.00
2023-01-21T16:30:32.309Z,56.50
2023-01-21T16:33:09.372Z,55.83
2023-01-21T16:35:50.450Z,55.05
2023-01-21T16:38:26.773Z,62.00
2023-01-21T16:41:08.029Z,55.17
2023-01-21T16:43:55.799Z,57.83
2023-01-21T16:46:36.352Z,57.25
2023-01-21T16:49:17.781Z,56.47
2023-01-21T16:52:01.046Z,65.95
2023-01-21T16:54:33.974Z,74.05
2023-01-21T16:57:19.514Z,54.80
2023-01-21T16:59:58.041Z,65.95
2023-01-21T17:02:33.386Z,56.17
2023-01-21T17:05:06.236Z,57.85
2023-01-21T17:07:49.019Z,57.67
2023-01-21T17:10:29.747Z,53.00
2023-01-21T17:13:08.035Z,57.00
2023-01-21T17:16:03.643Z,54.80
2023-01-21T17:18:39.764Z,58.45
2023-01-21T17:21:16.517Z,60.63
2023-01-21T17:23:55.632Z,58.83
2023-01-21T17:26:45.166Z,59.75
2023-01-21T17:29:18.859Z,58.30
2023-01-21T17:32:05.997Z,60.65
2023-01-21T17:34:40.259Z,63.55
2023-01-21T17:37:55.219Z,64.20
2023-01-21T17:40:45.992Z,60.05
2023-01-21T17:43:24.108Z,56.50
2023-01-21T17:45:57.490Z,66.30
2023-01-21T17:48:33.267Z,71.32
2023-01-21T17:51:06.464Z,60.28
2023-01-21T17:53:56.255Z,66.60
2023-01-21T17:57:00.612Z,65.47
2023-01-21T17:59:38.007Z,61.70
2023-01-21T18:02:17.007Z,68.13
2023-01-21T18:04:49.057Z,66.13
2023-01-21T18:07:32.240Z,63.13
2023-01-21T18:10:12.046Z,60.25
2023-01-21T18:12:44.055Z,65.07
2023-01-21T18:15:18.543Z,73.10
2023-01-21T18:17:56.209Z,58.85
2023-01-21T18:20:30.520Z,59.97
2023-01-21T18:23:02.807Z,59.67
2023-01-21T18:25:34.902Z,60.40
2023-01-21T18:28:22.085Z,65.78
2023-01-21T18:30:57.379Z,66.55
2023-01-21T18:33:31.003Z,59.22
2023-01-21T18:36:03.221Z,60.55
2023-01-21T18:38:35.981Z,64.60
2023-01-21T18:41:09.076Z,63.63
2023-01-21T18:43:42.056Z,64.57
2023-01-21T18:46:16.360Z,62.47
2023-01-21T18:48:48.495Z,57.97
2023-01-21T18:51:32.367Z,52.75
2023-01-21T18:54:04.704Z,57.00
2023-01-21T18:56:38.015Z,56.55
2023-01-21T18:59:19.451Z,70.30
2023-01-21T19:01:51.553Z,65.78
2023-01-21T19:04:23.649Z,61.58
2023-01-21T19:06:55.666Z,52.03
2023-01-21T19:09:28.020Z,52.63
2023-01-21T19:12:00.041Z,45.05
2023-01-21T19:14:31.983Z,52.72
2023-01-21T19:17:04.036Z,47.30
2023-01-21T19:19:36.022Z,50.58
2023-01-21T19:22:15.959Z,43.03
2023-01-21T19:24:48.287Z,40.60
2023-01-21T19:27:31.170Z,44.67
2023-01-21T19:30:03.470Z,50.25
2023-01-21T19:32:35.983Z,37.95
2023-01-21T19:38:23.251Z,40.50
2023-01-21T19:40:56.470Z,38.08
2023-01-21T19:43:28.833Z,35.38
2023-01-21T19:46:00.812Z,34.60
2023-01-21T19:48:32.998Z,33.38
2023-01-21T19:51:06.524Z,33.53
2023-01-21T19:53:38.513Z,29.35
2023-01-21T19:56:17.532Z,36.15
2023-01-21T19:58:49.610Z,33.17
2023-01-21T20:01:21.665Z,30.67
2023-01-21T20:06:46.592Z,28.83
2023-01-21T20:09:19.288Z,28.80
2023-01-21T20:11:51.310Z,30.77
2023-01-21T20:14:23.435Z,31.30
2023-01-21T20:16:56.581Z,25.38
2023-01-21T20:19:28.670Z,28.55
2023-01-21T20:22:02.332Z,25.63
2023-01-21T20:24:34.790Z,32.08
2023-01-21T20:27:15.565Z,29.27
2023-01-21T20:30:02.865Z,26.33
2023-01-21T20:32:39.923Z,23.27
2023-01-21T20:35:16.587Z,33.72
2023-01-21T20:37:51.686Z,24.55
2023-01-21T20:40:30.396Z,24.25
2023-01-21T20:43:02.633Z,27.90
2023-01-21T20:45:43.392Z,29.15
2023-01-21T20:48:44.605Z,40.03
2023-01-21T20:51:21.651Z,29.00
2023-01-21T20:53:53.996Z,28.08
2023-01-21T20:56:30.643Z,25.88
2023-01-21T20:59:02.870Z,28.00
2023-01-21T21:01:36.891Z,26.25
2023-01-21T21:04:10.717Z,25.33
2023-01-21T21:06:48.678Z,23.90
2023-01-21T21:09:22.165Z,22.83
2023-01-21T21:11:54.403Z,24.58
2023-01-21T21:14:28.200Z,26.23
2023-01-21T21:17:00.475Z,24.50
2023-01-21T21:19:32.597Z,23.70
2023-01-21T21:22:29.619Z,27.42
2023-01-21T21:25:01.675Z,60.15
2023-01-21T21:27:33.849Z,24.02
2023-01-21T21:30:08.867Z,37.92
2023-01-21T21:32:40.867Z,24.30
2023-01-21T21:35:32.240Z,22.63
2023-01-21T21:38:12.014Z,26.60
2023-01-21T21:40:47.692Z,22.30
2023-01-21T21:43:33.053Z,20.15
2023-01-21T21:46:27.732Z,20.92
2023-01-21T21:48:59.850Z,27.15
2023-01-21T21:51:31.973Z,23.35
2023-01-21T21:54:10.557Z,24.25
2023-01-21T21:56:43.298Z,27.75
2023-01-21T21:59:16.194Z,26.33
2023-01-21T22:01:48.186Z,25.52
2023-01-21T22:04:21.357Z,20.27
2023-01-21T22:06:53.439Z,23.25
2023-01-21T22:09:25.620Z,23.30
2023-01-21T22:11:57.681Z,22.90
2023-01-21T22:14:29.654Z,24.00
2023-01-21T22:17:01.732Z,25.95
2023-01-21T22:19:33.726Z,27.20
2023-01-21T22:22:06.119Z,22.13
2023-01-21T22:24:38.121Z,23.17
2023-01-21T22:27:13.114Z,23.13
2023-01-21T22:29:45.218Z,26.67
2023-01-21T22:32:17.218Z,28.65
2023-01-21T22:34:49.259Z,28.10
2023-01-21T22:37:21.308Z,25.30
2023-01-21T22:39:53.367Z,21.45
2023-01-21T22:42:25.519Z,23.95
2023-01-21T22:44:57.575Z,20.52
2023-01-21T22:47:32.117Z,21.42
2023-01-21T22:50:04.833Z,22.98
2023-01-21T22:52:36.842Z,20.73
2023-01-21T22:55:09.476Z,23.58
2023-01-21T22:57:41.490Z,20.30
2023-01-21T23:00:41.046Z,20.58
2023-01-21T23:03:13.069Z,21.63
2023-01-21T23:05:45.343Z,22.63
2023-01-21T23:08:18.738Z,22.73
2023-01-21T23:11:02.414Z,20.88
2023-01-21T23:13:35.377Z,19.92
2023-01-21T23:16:10.579Z,24.98
2023-01-21T23:18:42.700Z,21.38
2023-01-21T23:21:19.348Z,36.92
2023-01-21T23:23:51.412Z,30.75
2023-01-21T23:26:23.398Z,39.42
2023-01-21T23:28:57.248Z,21.90
2023-01-21T23:31:29.549Z,24.80
2023-01-21T23:34:03.412Z,22.38
2023-01-21T23:36:35.528Z,18.92
2023-01-21T23:39:07.844Z,24.55
2023-01-21T23:41:39.955Z,22.38
2023-01-21T23:44:12.077Z,27.27
2023-01-21T23:46:44.609Z,20.75
2023-01-21T23:49:19.689Z,24.00
2023-01-21T23:51:51.868Z,22.05
2023-01-21T23:54:23.911Z,19.33
2023-01-21T23:59:50.334Z,23.63
